sensor_id;sensor_type;location;lat;lon;timestamp;pressure;altitude;pressure_sealevel;temperature;humidity
57442;BME280;43284;47.042;15.498;2022-09-03T00:13:35;97197.16;;;11.97;89.99
57442;BME280;43284;47.042;15.498;2022-09-03T00:16:08;97191.50;;;12.04;92.16
57442;BME280;43284;47.042;15.498;2022-09-03T00:18:49;97191.25;;;12.09;91.94
57442;BME280;43284;47.042;15.498;2022-09-03T00:21:38;97184.72;;;12.00;90.03
57442;BME280;43284;47.042;15.498;2022-09-03T00:24:12;97187.53;;;11.97;89.64
57442;BME280;43284;47.042;15.498;2022-09-03T00:26:46;97184.97;;;11.95;90.33
57442;BME280;43284;47.042;15.498;2022-09-03T00:29:38;97195.13;;;12.02;91.99
57442;BME280;43284;47.042;15.498;2022-09-03T00:32:18;97180.94;;;12.06;93.09
57442;BME280;43284;47.042;15.498;2022-09-03T00:34:54;97171.22;;;12.08;92.94
57442;BME280;43284;47.042;15.498;2022-09-03T00:37:24;97168.53;;;12.09;92.49
57442;BME280;43284;47.042;15.498;2022-09-03T00:39:56;97165.53;;;12.00;90.74
57442;BME280;43284;47.042;15.498;2022-09-03T00:49:03;97170.81;;;11.82;91.48
57442;BME280;43284;47.042;15.498;2022-09-03T00:51:54;97169.91;;;11.83;91.42
57442;BME280;43284;47.042;15.498;2022-09-03T01:00:08;97176.88;;;11.83;90.01
57442;BME280;43284;47.042;15.498;2022-09-03T01:05:41;97175.06;;;11.51;89.04
57442;BME280;43284;47.042;15.498;2022-09-03T01:11:27;97169.59;;;11.39;90.30
57442;BME280;43284;47.042;15.498;2022-09-03T01:17:45;97170.00;;;11.31;91.35
57442;BME280;43284;47.042;15.498;2022-09-03T01:22:21;97166.41;;;11.16;91.32
57442;BME280;43284;47.042;15.498;2022-09-03T01:25:14;97165.56;;;11.16;92.31
57442;BME280;43284;47.042;15.498;2022-09-03T01:30:27;97166.41;;;11.16;92.11
57442;BME280;43284;47.042;15.498;2022-09-03T01:33:18;97170.31;;;11.25;94.28
57442;BME280;43284;47.042;15.498;2022-09-03T01:38:54;97169.78;;;11.18;92.45
57442;BME280;43284;47.042;15.498;2022-09-03T01:41:49;97168.78;;;11.21;91.95
57442;BME280;43284;47.042;15.498;2022-09-03T01:50:54;97174.56;;;11.10;92.80
57442;BME280;43284;47.042;15.498;2022-09-03T01:59:09;97187.16;;;11.02;91.65
57442;BME280;43284;47.042;15.498;2022-09-03T02:01:46;97192.63;;;10.97;91.57
57442;BME280;43284;47.042;15.498;2022-09-03T02:04:22;97184.25;;;10.90;91.35
57442;BME280;43284;47.042;15.498;2022-09-03T02:06:51;97174.78;;;10.88;92.00
57442;BME280;43284;47.042;15.498;2022-09-03T02:09:19;97186.84;;;10.90;92.96
57442;BME280;43284;47.042;15.498;2022-09-03T02:12:13;97186.84;;;10.90;92.41
57442;BME280;43284;47.042;15.498;2022-09-03T02:14:42;97192.25;;;10.87;92.46
57442;BME280;43284;47.042;15.498;2022-09-03T02:17:10;97198.31;;;10.88;93.48
57442;BME280;43284;47.042;15.498;2022-09-03T02:19:38;97195.53;;;10.91;93.98
57442;BME280;43284;47.042;15.498;2022-09-03T02:22:05;97193.09;;;10.88;93.32
57442;BME280;43284;47.042;15.498;2022-09-03T02:24:33;97196.78;;;10.84;92.83
57442;BME280;43284;47.042;15.498;2022-09-03T02:27:00;97194.63;;;10.75;91.91
57442;BME280;43284;47.042;15.498;2022-09-03T02:29:27;97196.53;;;10.71;92.17
57442;BME280;43284;47.042;15.498;2022-09-03T02:31:55;97200.97;;;10.69;92.05
57442;BME280;43284;47.042;15.498;2022-09-03T02:34:24;97202.13;;;10.63;92.17
57442;BME280;43284;47.042;15.498;2022-09-03T02:36:51;97200.53;;;10.61;92.42
57442;BME280;43284;47.042;15.498;2022-09-03T02:39:19;97199.38;;;10.66;93.69
57442;BME280;43284;47.042;15.498;2022-09-03T02:41:54;97196.91;;;10.63;93.33
57442;BME280;43284;47.042;15.498;2022-09-03T02:44:28;97195.13;;;10.64;93.35
57442;BME280;43284;47.042;15.498;2022-09-03T02:46:59;97195.97;;;10.64;92.35
57442;BME280;43284;47.042;15.498;2022-09-03T02:49:27;97200.75;;;10.56;91.21
57442;BME280;43284;47.042;15.498;2022-09-03T02:52:00;97209.00;;;10.47;91.06
57442;BME280;43284;47.042;15.498;2022-09-03T02:54:30;97208.38;;;10.42;92.14
57442;BME280;43284;47.042;15.498;2022-09-03T02:56:59;97213.22;;;10.32;91.66
57442;BME280;43284;47.042;15.498;2022-09-03T02:59:26;97216.56;;;10.34;92.46
57442;BME280;43284;47.042;15.498;2022-09-03T03:01:57;97211.44;;;10.33;92.64
57442;BME280;43284;47.042;15.498;2022-09-03T03:04:24;97215.59;;;10.37;94.46
57442;BME280;43284;47.042;15.498;2022-09-03T03:06:51;97200.31;;;10.46;95.83
57442;BME280;43284;47.042;15.498;2022-09-03T03:09:20;97213.31;;;10.48;95.83
57442;BME280;43284;47.042;15.498;2022-09-03T03:11:47;97230.13;;;10.42;94.04
57442;BME280;43284;47.042;15.498;2022-09-03T03:14:17;97232.84;;;10.41;94.28
57442;BME280;43284;47.042;15.498;2022-09-03T03:16:45;97226.91;;;10.37;93.94
57442;BME280;43284;47.042;15.498;2022-09-03T03:19:12;97224.34;;;10.36;93.86
57442;BME280;43284;47.042;15.498;2022-09-03T03:21:39;97220.66;;;10.40;94.64
57442;BME280;43284;47.042;15.498;2022-09-03T03:24:07;97215.59;;;10.37;94.18
57442;BME280;43284;47.042;15.498;2022-09-03T03:26:34;97211.06;;;10.40;94.47
57442;BME280;43284;47.042;15.498;2022-09-03T03:29:03;97213.66;;;10.40;93.97
57442;BME280;43284;47.042;15.498;2022-09-03T03:31:31;97221.88;;;10.33;92.93
57442;BME280;43284;47.042;15.498;2022-09-03T03:34:01;97214.16;;;10.29;92.81
57442;BME280;43284;47.042;15.498;2022-09-03T03:36:31;97214.22;;;10.28;92.55
57442;BME280;43284;47.042;15.498;2022-09-03T03:39:00;97218.59;;;10.27;93.04
57442;BME280;43284;47.042;15.498;2022-09-03T03:41:31;97211.00;;;10.42;96.28
57442;BME280;43284;47.042;15.498;2022-09-03T03:44:04;97213.13;;;10.34;94.65
57442;BME280;43284;47.042;15.498;2022-09-03T03:46:36;97221.16;;;10.48;97.22
57442;BME280;43284;47.042;15.498;2022-09-03T03:49:05;97214.78;;;10.54;97.32
57442;BME280;43284;47.042;15.498;2022-09-03T03:51:34;97218.91;;;10.40;94.23
57442;BME280;43284;47.042;15.498;2022-09-03T03:54:02;97224.69;;;10.28;92.59
57442;BME280;43284;47.042;15.498;2022-09-03T03:56:29;97224.91;;;10.23;93.18
57442;BME280;43284;47.042;15.498;2022-09-03T03:58:58;97227.00;;;10.15;92.70
57442;BME280;43284;47.042;15.498;2022-09-03T04:01:26;97223.69;;;10.11;93.02
57442;BME280;43284;47.042;15.498;2022-09-03T04:03:55;97232.50;;;10.09;93.29
57442;BME280;43284;47.042;15.498;2022-09-03T04:06:23;97229.63;;;10.15;94.76
57442;BME280;43284;47.042;15.498;2022-09-03T04:08:50;97231.41;;;10.15;94.49
57442;BME280;43284;47.042;15.498;2022-09-03T04:11:21;97230.81;;;10.08;93.59
57442;BME280;43284;47.042;15.498;2022-09-03T04:13:49;97223.16;;;10.03;93.57
57442;BME280;43284;47.042;15.498;2022-09-03T04:16:23;97221.50;;;10.02;93.46
57442;BME280;43284;47.042;15.498;2022-09-03T04:18:51;97209.28;;;10.03;93.85
57442;BME280;43284;47.042;15.498;2022-09-03T04:21:21;97212.59;;;10.06;94.47
57442;BME280;43284;47.042;15.498;2022-09-03T04:23:50;97217.63;;;10.11;94.72
57442;BME280;43284;47.042;15.498;2022-09-03T04:26:20;97207.31;;;10.08;94.01
57442;BME280;43284;47.042;15.498;2022-09-03T04:28:48;97205.75;;;10.04;92.84
57442;BME280;43284;47.042;15.498;2022-09-03T04:31:18;97215.50;;;10.00;93.25
57442;BME280;43284;47.042;15.498;2022-09-03T04:33:46;97206.53;;;10.06;95.08
57442;BME280;43284;47.042;15.498;2022-09-03T04:36:20;97206.72;;;10.01;94.09
57442;BME280;43284;47.042;15.498;2022-09-03T04:38:49;97200.66;;;10.01;94.83
57442;BME280;43284;47.042;15.498;2022-09-03T04:41:19;97210.06;;;10.05;95.48
57442;BME280;43284;47.042;15.498;2022-09-03T04:43:47;97201.94;;;10.11;95.78
57442;BME280;43284;47.042;15.498;2022-09-03T04:46:15;97205.47;;;10.10;95.13
57442;BME280;43284;47.042;15.498;2022-09-03T04:48:43;97211.88;;;10.03;93.58
57442;BME280;43284;47.042;15.498;2022-09-03T04:51:12;97209.34;;;10.01;93.69
57442;BME280;43284;47.042;15.498;2022-09-03T04:53:42;97205.88;;;10.01;93.86
57442;BME280;43284;47.042;15.498;2022-09-03T04:56:20;97207.50;;;10.03;94.92
57442;BME280;43284;47.042;15.498;2022-09-03T04:58:48;97214.06;;;10.12;96.11
57442;BME280;43284;47.042;15.498;2022-09-03T05:01:22;97216.34;;;10.20;96.66
57442;BME280;43284;47.042;15.498;2022-09-03T05:03:50;97213.72;;;10.20;95.62
57442;BME280;43284;47.042;15.498;2022-09-03T05:06:21;97209.13;;;10.25;95.51
57442;BME280;43284;47.042;15.498;2022-09-03T05:08:49;97218.69;;;10.26;95.35
57442;BME280;43284;47.042;15.498;2022-09-03T05:11:17;97225.59;;;10.27;94.63
57442;BME280;43284;47.042;15.498;2022-09-03T05:13:50;97223.72;;;10.30;94.65
57442;BME280;43284;47.042;15.498;2022-09-03T05:16:18;97220.13;;;10.33;94.78
57442;BME280;43284;47.042;15.498;2022-09-03T05:18:46;97217.28;;;10.38;95.32
57442;BME280;43284;47.042;15.498;2022-09-03T05:21:16;97211.94;;;10.41;95.65
57442;BME280;43284;47.042;15.498;2022-09-03T05:23:45;97222.84;;;10.49;96.23
57442;BME280;43284;47.042;15.498;2022-09-03T05:26:15;97224.34;;;10.55;96.42
57442;BME280;43284;47.042;15.498;2022-09-03T05:28:44;97223.13;;;10.62;96.61
57442;BME280;43284;47.042;15.498;2022-09-03T05:31:17;97220.22;;;10.68;96.60
57442;BME280;43284;47.042;15.498;2022-09-03T05:33:50;97211.97;;;10.76;97.18
57442;BME280;43284;47.042;15.498;2022-09-03T05:36:20;97218.47;;;10.86;97.36
57442;BME280;43284;47.042;15.498;2022-09-03T05:38:52;97211.72;;;10.99;97.51
57442;BME280;43284;47.042;15.498;2022-09-03T05:41:23;97205.28;;;11.06;97.24
57442;BME280;43284;47.042;15.498;2022-09-03T05:43:53;97214.72;;;11.09;97.01
57442;BME280;43284;47.042;15.498;2022-09-03T05:46:29;97210.34;;;11.09;97.28
57442;BME280;43284;47.042;15.498;2022-09-03T05:48:58;97207.56;;;11.12;97.54
57442;BME280;43284;47.042;15.498;2022-09-03T05:51:27;97209.88;;;11.19;97.59
57442;BME280;43284;47.042;15.498;2022-09-03T05:53:54;97210.72;;;11.19;97.28
57442;BME280;43284;47.042;15.498;2022-09-03T05:56:23;97209.81;;;11.20;97.39
57442;BME280;43284;47.042;15.498;2022-09-03T05:58:53;97209.56;;;11.25;97.69
57442;BME280;43284;47.042;15.498;2022-09-03T06:01:26;97212.72;;;11.31;97.82
57442;BME280;43284;47.042;15.498;2022-09-03T06:03:56;97210.72;;;11.37;97.85
57442;BME280;43284;47.042;15.498;2022-09-03T06:06:24;97209.50;;;11.44;98.02
57442;BME280;43284;47.042;15.498;2022-09-03T06:08:57;97207.41;;;11.50;98.27
57442;BME280;43284;47.042;15.498;2022-09-03T06:11:25;97216.56;;;11.59;98.39
57442;BME280;43284;47.042;15.498;2022-09-03T06:13:56;97214.28;;;11.69;98.33
57442;BME280;43284;47.042;15.498;2022-09-03T06:16:25;97220.88;;;11.76;98.01
57442;BME280;43284;47.042;15.498;2022-09-03T06:18:52;97213.47;;;11.84;97.78
57442;BME280;43284;47.042;15.498;2022-09-03T06:21:21;97214.03;;;11.91;97.13
57442;BME280;43284;47.042;15.498;2022-09-03T06:23:50;97218.63;;;12.03;97.35
57442;BME280;43284;47.042;15.498;2022-09-03T06:26:18;97220.75;;;12.12;96.84
57442;BME280;43284;47.042;15.498;2022-09-03T06:28:47;97218.56;;;12.21;95.96
57442;BME280;43284;47.042;15.498;2022-09-03T06:31:21;97212.91;;;12.28;94.86
57442;BME280;43284;47.042;15.498;2022-09-03T06:33:49;97215.94;;;12.36;94.28
57442;BME280;43284;47.042;15.498;2022-09-03T06:36:18;97210.19;;;12.46;93.13
57442;BME280;43284;47.042;15.498;2022-09-03T06:38:46;97204.44;;;12.55;92.83
57442;BME280;43284;47.042;15.498;2022-09-03T06:41:17;97202.16;;;12.65;91.87
57442;BME280;43284;47.042;15.498;2022-09-03T06:43:53;97208.59;;;12.75;90.90
57442;BME280;43284;47.042;15.498;2022-09-03T06:46:23;97202.72;;;12.86;90.56
57442;BME280;43284;47.042;15.498;2022-09-03T06:48:51;97205.66;;;12.95;89.59
57442;BME280;43284;47.042;15.498;2022-09-03T06:51:21;97207.75;;;13.05;89.65
57442;BME280;43284;47.042;15.498;2022-09-03T06:53:52;97202.81;;;13.14;89.07
57442;BME280;43284;47.042;15.498;2022-09-03T06:56:23;97207.53;;;13.24;87.94
57442;BME280;43284;47.042;15.498;2022-09-03T06:58:56;97203.56;;;13.32;87.90
57442;BME280;43284;47.042;15.498;2022-09-03T07:01:28;97203.75;;;13.44;87.31
57442;BME280;43284;47.042;15.498;2022-09-03T07:04:01;97200.50;;;13.54;87.05
57442;BME280;43284;47.042;15.498;2022-09-03T07:06:34;97194.75;;;13.62;86.90
57442;BME280;43284;47.042;15.498;2022-09-03T07:09:06;97200.72;;;13.80;87.12
57442;BME280;43284;47.042;15.498;2022-09-03T07:11:34;97199.19;;;13.90;84.79
57442;BME280;43284;47.042;15.498;2022-09-03T07:14:03;97199.56;;;13.98;85.35
57442;BME280;43284;47.042;15.498;2022-09-03T07:16:34;97209.34;;;14.11;84.43
57442;BME280;43284;47.042;15.498;2022-09-03T07:19:03;97205.47;;;14.16;83.86
57442;BME280;43284;47.042;15.498;2022-09-03T07:21:33;97207.63;;;14.24;83.17
57442;BME280;43284;47.042;15.498;2022-09-03T07:24:02;97207.78;;;14.35;83.08
57442;BME280;43284;47.042;15.498;2022-09-03T07:26:33;97206.28;;;14.46;81.36
57442;BME280;43284;47.042;15.498;2022-09-03T07:29:00;97197.25;;;14.50;80.67
57442;BME280;43284;47.042;15.498;2022-09-03T07:31:30;97189.03;;;14.69;80.77
57442;BME280;43284;47.042;15.498;2022-09-03T07:33:59;97188.56;;;14.76;81.02
57442;BME280;43284;47.042;15.498;2022-09-03T07:36:27;97192.25;;;14.87;81.53
57442;BME280;43284;47.042;15.498;2022-09-03T07:38:56;97195.31;;;14.93;80.75
57442;BME280;43284;47.042;15.498;2022-09-03T07:41:26;97194.63;;;15.04;81.31
57442;BME280;43284;47.042;15.498;2022-09-03T07:43:54;97192.16;;;15.15;81.26
57442;BME280;43284;47.042;15.498;2022-09-03T07:46:24;97190.47;;;15.27;81.76
57442;BME280;43284;47.042;15.498;2022-09-03T07:48:56;97193.44;;;15.35;80.67
57442;BME280;43284;47.042;15.498;2022-09-03T07:51:26;97191.25;;;15.42;80.51
57442;BME280;43284;47.042;15.498;2022-09-03T07:53:59;97188.81;;;15.52;80.13
57442;BME280;43284;47.042;15.498;2022-09-03T07:56:28;97197.13;;;15.58;79.12
57442;BME280;43284;47.042;15.498;2022-09-03T07:59:02;97188.50;;;15.69;79.84
57442;BME280;43284;47.042;15.498;2022-09-03T08:01:30;97184.63;;;15.75;79.41
57442;BME280;43284;47.042;15.498;2022-09-03T08:04:00;97190.94;;;15.85;78.78
57442;BME280;43284;47.042;15.498;2022-09-03T08:06:29;97192.00;;;15.95;78.37
57442;BME280;43284;47.042;15.498;2022-09-03T08:09:06;97192.31;;;16.03;77.57
57442;BME280;43284;47.042;15.498;2022-09-03T08:11:37;97197.91;;;16.12;77.91
57442;BME280;43284;47.042;15.498;2022-09-03T08:14:07;97204.31;;;16.20;75.28
57442;BME280;43284;47.042;15.498;2022-09-03T08:16:38;97197.53;;;16.29;76.19
57442;BME280;43284;47.042;15.498;2022-09-03T08:19:06;97196.16;;;16.36;75.16
57442;BME280;43284;47.042;15.498;2022-09-03T08:21:35;97192.41;;;16.52;73.90
57442;BME280;43284;47.042;15.498;2022-09-03T08:24:03;97195.78;;;16.54;73.57
57442;BME280;43284;47.042;15.498;2022-09-03T08:26:34;97187.28;;;16.61;74.24
57442;BME280;43284;47.042;15.498;2022-09-03T08:29:03;97197.41;;;16.80;75.79
57442;BME280;43284;47.042;15.498;2022-09-03T08:31:32;97193.34;;;16.87;71.01
57442;BME280;43284;47.042;15.498;2022-09-03T08:34:00;97192.56;;;16.98;69.18
57442;BME280;43284;47.042;15.498;2022-09-03T08:36:35;97193.91;;;17.04;68.57
57442;BME280;43284;47.042;15.498;2022-09-03T08:39:06;97190.19;;;17.06;69.42
57442;BME280;43284;47.042;15.498;2022-09-03T08:42:09;97186.25;;;17.12;70.59
57442;BME280;43284;47.042;15.498;2022-09-03T08:45:00;97185.13;;;17.27;70.82
57442;BME280;43284;47.042;15.498;2022-09-03T08:47:34;97182.50;;;17.39;70.84
57442;BME280;43284;47.042;15.498;2022-09-03T08:55:58;97181.97;;;17.69;69.97
57442;BME280;43284;47.042;15.498;2022-09-03T08:58:32;97173.66;;;17.74;69.69
57442;BME280;43284;47.042;15.498;2022-09-03T09:07:44;97177.44;;;18.05;68.76
57442;BME280;43284;47.042;15.498;2022-09-03T09:13:31;97175.97;;;18.23;69.58
57442;BME280;43284;47.042;15.498;2022-09-03T09:16:14;97180.91;;;18.39;67.34
57442;BME280;43284;47.042;15.498;2022-09-03T09:19:04;97185.69;;;18.45;68.83
57442;BME280;43284;47.042;15.498;2022-09-03T09:22:08;97182.81;;;18.48;68.56
57442;BME280;43284;47.042;15.498;2022-09-03T09:24:44;97185.69;;;18.57;67.33
57442;BME280;43284;47.042;15.498;2022-09-03T09:27:15;97178.81;;;18.65;67.88
57442;BME280;43284;47.042;15.498;2022-09-03T09:29:47;97171.81;;;18.64;67.29
57442;BME280;43284;47.042;15.498;2022-09-03T09:32:16;97168.31;;;18.64;66.97
57442;BME280;43284;47.042;15.498;2022-09-03T09:34:45;97173.34;;;18.78;67.59
57442;BME280;43284;47.042;15.498;2022-09-03T09:37:14;97173.13;;;18.81;67.21
57442;BME280;43284;47.042;15.498;2022-09-03T09:40:00;97174.16;;;18.90;64.55
57442;BME280;43284;47.042;15.498;2022-09-03T09:42:28;97164.88;;;18.96;65.55
57442;BME280;43284;47.042;15.498;2022-09-03T09:44:56;97162.69;;;19.01;65.83
57442;BME280;43284;47.042;15.498;2022-09-03T09:47:39;97168.88;;;19.11;65.72
57442;BME280;43284;47.042;15.498;2022-09-03T09:50:33;97162.03;;;19.08;64.81
57442;BME280;43284;47.042;15.498;2022-09-03T09:53:03;97166.94;;;19.24;65.42
57442;BME280;43284;47.042;15.498;2022-09-03T09:55:35;97169.50;;;19.35;63.85
57442;BME280;43284;47.042;15.498;2022-09-03T09:58:11;97171.19;;;19.37;64.24
57442;BME280;43284;47.042;15.498;2022-09-03T10:00:40;97168.09;;;19.31;62.64
57442;BME280;43284;47.042;15.498;2022-09-03T10:03:10;97165.09;;;19.46;65.49
57442;BME280;43284;47.042;15.498;2022-09-03T10:05:39;97172.81;;;19.49;62.64
57442;BME280;43284;47.042;15.498;2022-09-03T10:08:18;97180.69;;;19.60;63.32
57442;BME280;43284;47.042;15.498;2022-09-03T10:10:48;97177.53;;;19.66;61.60
57442;BME280;43284;47.042;15.498;2022-09-03T10:13:25;97163.44;;;19.66;61.15
57442;BME280;43284;47.042;15.498;2022-09-03T10:16:19;97163.75;;;19.51;60.55
57442;BME280;43284;47.042;15.498;2022-09-03T10:19:25;97163.88;;;19.50;62.99
57442;BME280;43284;47.042;15.498;2022-09-03T10:22:22;97164.50;;;19.63;63.62
57442;BME280;43284;47.042;15.498;2022-09-03T10:25:02;97160.25;;;19.72;63.69
57442;BME280;43284;47.042;15.498;2022-09-03T10:27:31;97179.00;;;19.80;62.88
57442;BME280;43284;47.042;15.498;2022-09-03T10:29:59;97179.06;;;19.90;61.83
57442;BME280;43284;47.042;15.498;2022-09-03T10:32:51;97178.53;;;19.96;63.40
57442;BME280;43284;47.042;15.498;2022-09-03T10:35:31;97173.69;;;20.11;61.91
57442;BME280;43284;47.042;15.498;2022-09-03T10:38:17;97174.53;;;20.11;63.26
57442;BME280;43284;47.042;15.498;2022-09-03T10:46:49;97169.81;;;20.55;60.43
57442;BME280;43284;47.042;15.498;2022-09-03T10:49:31;97164.13;;;20.70;60.30
57442;BME280;43284;47.042;15.498;2022-09-03T10:52:22;97160.50;;;20.71;61.08
57442;BME280;43284;47.042;15.498;2022-09-03T10:55:03;97156.56;;;20.65;60.91
57442;BME280;43284;47.042;15.498;2022-09-03T10:57:38;97151.38;;;20.64;58.64
57442;BME280;43284;47.042;15.498;2022-09-03T11:00:12;97154.91;;;20.64;59.86
57442;BME280;43284;47.042;15.498;2022-09-03T11:09:07;97148.31;;;20.78;60.90
57442;BME280;43284;47.042;15.498;2022-09-03T11:14:47;97140.63;;;20.94;57.77
57442;BME280;43284;47.042;15.498;2022-09-03T11:17:21;97145.13;;;20.94;57.67
57442;BME280;43284;47.042;15.498;2022-09-03T11:20:01;97140.63;;;20.94;58.90
57442;BME280;43284;47.042;15.498;2022-09-03T11:22:33;97148.31;;;21.36;60.89
57442;BME280;43284;47.042;15.498;2022-09-03T11:25:02;97148.63;;;21.43;59.45
57442;BME280;43284;47.042;15.498;2022-09-03T11:30:54;97138.59;;;21.74;58.56
57442;BME280;43284;47.042;15.498;2022-09-03T11:33:29;97130.44;;;21.86;59.41
57442;BME280;43284;47.042;15.498;2022-09-03T11:36:00;97129.00;;;21.91;56.95
57442;BME280;43284;47.042;15.498;2022-09-03T11:38:29;97127.19;;;21.92;57.67
57442;BME280;43284;47.042;15.498;2022-09-03T11:41:23;97127.06;;;21.84;54.05
57442;BME280;43284;47.042;15.498;2022-09-03T11:43:53;97126.88;;;21.95;56.32
57442;BME280;43284;47.042;15.498;2022-09-03T11:48:50;97123.53;;;22.20;56.77
57442;BME280;43284;47.042;15.498;2022-09-03T11:51:30;97131.34;;;22.32;56.14
57442;BME280;43284;47.042;15.498;2022-09-03T11:54:03;97133.56;;;22.36;57.22
57442;BME280;43284;47.042;15.498;2022-09-03T11:56:31;97124.66;;;22.28;54.83
57442;BME280;43284;47.042;15.498;2022-09-03T11:59:22;97124.06;;;22.34;56.83
57442;BME280;43284;47.042;15.498;2022-09-03T12:02:04;97122.47;;;22.41;56.72
57442;BME280;43284;47.042;15.498;2022-09-03T12:07:30;97125.94;;;22.69;57.27
57442;BME280;43284;47.042;15.498;2022-09-03T12:13:00;97112.53;;;22.97;57.53
57442;BME280;43284;47.042;15.498;2022-09-03T12:18:40;97118.50;;;23.09;58.52
57442;BME280;43284;47.042;15.498;2022-09-03T12:21:10;97122.28;;;23.24;55.25
57442;BME280;43284;47.042;15.498;2022-09-03T12:23:46;97119.00;;;23.30;55.04
57442;BME280;43284;47.042;15.498;2022-09-03T12:26:23;97118.84;;;23.32;55.38
57442;BME280;43284;47.042;15.498;2022-09-03T12:28:59;97107.09;;;23.42;55.43
57442;BME280;43284;47.042;15.498;2022-09-03T12:31:32;97100.47;;;23.55;54.53
57442;BME280;43284;47.042;15.498;2022-09-03T12:34:14;97101.53;;;23.62;53.56
57442;BME280;43284;47.042;15.498;2022-09-03T12:36:49;97102.19;;;23.82;54.62
57442;BME280;43284;47.042;15.498;2022-09-03T12:39:25;97099.03;;;23.87;52.64
57442;BME280;43284;47.042;15.498;2022-09-03T12:42:02;97085.34;;;23.90;52.08
57442;BME280;43284;47.042;15.498;2022-09-03T12:44:39;97087.66;;;23.84;51.29
57442;BME280;43284;47.042;15.498;2022-09-03T12:47:19;97087.88;;;23.91;52.34
57442;BME280;43284;47.042;15.498;2022-09-03T12:49:49;97081.25;;;24.03;52.88
57442;BME280;43284;47.042;15.498;2022-09-03T12:52:20;97083.28;;;24.10;53.05
57442;BME280;43284;47.042;15.498;2022-09-03T12:55:06;97071.66;;;24.27;53.96
57442;BME280;43284;47.042;15.498;2022-09-03T12:57:50;97066.66;;;24.32;52.69
57442;BME280;43284;47.042;15.498;2022-09-03T13:00:21;97065.16;;;24.46;54.36
57442;BME280;43284;47.042;15.498;2022-09-03T13:03:02;97061.53;;;24.55;53.41
57442;BME280;43284;47.042;15.498;2022-09-03T13:05:47;97061.22;;;24.58;52.47
57442;BME280;43284;47.042;15.498;2022-09-03T13:08:39;97055.88;;;24.58;52.54
57442;BME280;43284;47.042;15.498;2022-09-03T13:11:08;97057.38;;;24.61;50.66
57442;BME280;43284;47.042;15.498;2022-09-03T13:13:37;97054.03;;;24.59;50.65
57442;BME280;43284;47.042;15.498;2022-09-03T13:16:33;97056.16;;;24.47;50.93
57442;BME280;43284;47.042;15.498;2022-09-03T13:34:08;97045.88;;;24.85;51.83
57442;BME280;43284;47.042;15.498;2022-09-03T13:36:53;97048.69;;;24.92;50.05
57442;BME280;43284;47.042;15.498;2022-09-03T13:39:37;97048.38;;;24.86;51.26
57442;BME280;43284;47.042;15.498;2022-09-03T13:42:15;97042.88;;;24.80;51.99
57442;BME280;43284;47.042;15.498;2022-09-03T13:44:44;97042.53;;;24.83;51.78
57442;BME280;43284;47.042;15.498;2022-09-03T13:50:58;97039.50;;;24.86;50.01
57442;BME280;43284;47.042;15.498;2022-09-03T13:56:29;97045.00;;;24.68;50.31
57442;BME280;43284;47.042;15.498;2022-09-03T14:02:11;97038.50;;;24.79;50.55
57442;BME280;43284;47.042;15.498;2022-09-03T14:16:28;97031.66;;;24.84;49.74
57442;BME280;43284;47.042;15.498;2022-09-03T14:19:16;97027.81;;;24.87;50.61
57442;BME280;43284;47.042;15.498;2022-09-03T14:21:53;97026.13;;;24.86;50.96
57442;BME280;43284;47.042;15.498;2022-09-03T14:27:41;97024.16;;;24.80;50.59
57442;BME280;43284;47.042;15.498;2022-09-03T14:30:29;97023.47;;;24.70;50.52
57442;BME280;43284;47.042;15.498;2022-09-03T14:33:52;97024.47;;;24.68;49.50
57442;BME280;43284;47.042;15.498;2022-09-03T14:45:01;97017.63;;;24.82;50.70
57442;BME280;43284;47.042;15.498;2022-09-03T14:50:37;97024.66;;;24.75;50.99
57442;BME280;43284;47.042;15.498;2022-09-03T14:53:12;97021.81;;;24.85;50.23
57442;BME280;43284;47.042;15.498;2022-09-03T15:01:48;97024.31;;;24.70;50.34
57442;BME280;43284;47.042;15.498;2022-09-03T15:04:50;97020.47;;;24.64;49.19
57442;BME280;43284;47.042;15.498;2022-09-03T15:07:42;97018.47;;;24.66;49.85
57442;BME280;43284;47.042;15.498;2022-09-03T15:13:33;97018.97;;;24.54;50.26
57442;BME280;43284;47.042;15.498;2022-09-03T15:19:10;97020.28;;;24.74;51.83
57442;BME280;43284;47.042;15.498;2022-09-03T15:22:07;97018.44;;;24.75;50.93
57442;BME280;43284;47.042;15.498;2022-09-03T15:25:21;97013.59;;;24.62;51.72
57442;BME280;43284;47.042;15.498;2022-09-03T15:36:53;97018.44;;;24.83;52.28
57442;BME280;43284;47.042;15.498;2022-09-03T15:39:30;97031.00;;;24.82;51.45
57442;BME280;43284;47.042;15.498;2022-09-03T15:42:14;97024.66;;;24.75;52.79
57442;BME280;43284;47.042;15.498;2022-09-03T15:45:39;97026.31;;;24.76;50.76
57442;BME280;43284;47.042;15.498;2022-09-03T15:48:11;97028.66;;;24.71;50.66
57442;BME280;43284;47.042;15.498;2022-09-03T15:53:53;97025.91;;;24.30;52.07
57442;BME280;43284;47.042;15.498;2022-09-03T15:57:04;97038.75;;;24.18;54.03
57442;BME280;43284;47.042;15.498;2022-09-03T16:05:50;97049.47;;;23.58;55.09
57442;BME280;43284;47.042;15.498;2022-09-03T16:17:43;97042.16;;;23.08;57.53
57442;BME280;43284;47.042;15.498;2022-09-03T16:20:37;97048.94;;;23.02;57.80
57442;BME280;43284;47.042;15.498;2022-09-03T16:23:22;97052.50;;;22.93;57.83
57442;BME280;43284;47.042;15.498;2022-09-03T16:26:09;97051.25;;;22.79;58.32
57442;BME280;43284;47.042;15.498;2022-09-03T16:28:54;97053.16;;;22.69;58.80
57442;BME280;43284;47.042;15.498;2022-09-03T16:37:22;97059.00;;;22.36;61.77
57442;BME280;43284;47.042;15.498;2022-09-03T17:00:00;97058.41;;;21.59;59.73
57442;BME280;43284;47.042;15.498;2022-09-03T17:02:51;97054.34;;;21.55;59.55
57442;BME280;43284;47.042;15.498;2022-09-03T17:28:47;97086.31;;;20.48;67.04